sensor_id;sensor_type;location;lat;lon;timestamp;P1;durP1;ratioP1;P2;durP2;ratioP2
74900;SDS011;63461;51.416;6.758;2024-03-29T00:00:45;6.30;;;1.20;;
74900;SDS011;63461;51.416;6.758;2024-03-29T00:03:11;4.90;;;1.00;;
74900;SDS011;63461;51.416;6.758;2024-03-29T00:05:37;4.57;;;0.90;;
74900;SDS011;63461;51.416;6.758;2024-03-29T00:08:03;6.83;;;1.40;;
74900;SDS011;63461;51.416;6.758;2024-03-29T00:10:30;1.97;;;0.73;;
74900;SDS011;63461;51.416;6.758;2024-03-29T00:12:56;3.63;;;1.00;;
74900;SDS011;63461;51.416;6.758;2024-03-29T00:15:22;7.90;;;1.33;;
74900;SDS011;63461;51.416;6.758;2024-03-29T00:17:48;4.20;;;0.80;;
74900;SDS011;63461;51.416;6.758;2024-03-29T00:20:13;3.17;;;0.93;;
74900;SDS011;63461;51.416;6.758;2024-03-29T00:22:40;2.93;;;0.70;;
74900;SDS011;63461;51.416;6.758;2024-03-29T00:25:06;3.37;;;0.90;;
74900;SDS011;63461;51.416;6.758;2024-03-29T00:27:32;4.70;;;0.70;;
74900;SDS011;63461;51.416;6.758;2024-03-29T00:29:58;2.20;;;0.70;;
74900;SDS011;63461;51.416;6.758;2024-03-29T00:32:24;3.53;;;1.20;;
74900;SDS011;63461;51.416;6.758;2024-03-29T00:34:51;7.53;;;1.30;;
74900;SDS011;63461;51.416;6.758;2024-03-29T00:37:20;4.33;;;1.63;;
74900;SDS011;63461;51.416;6.758;2024-03-29T00:39:46;4.23;;;1.57;;
74900;SDS011;63461;51.416;6.758;2024-03-29T00:42:12;5.17;;;1.50;;
74900;SDS011;63461;51.416;6.758;2024-03-29T00:44:43;2.30;;;1.00;;
74900;SDS011;63461;51.416;6.758;2024-03-29T00:47:09;6.67;;;1.50;;
74900;SDS011;63461;51.416;6.758;2024-03-29T00:49:35;4.80;;;1.10;;
74900;SDS011;63461;51.416;6.758;2024-03-29T00:52:02;2.07;;;0.90;;
74900;SDS011;63461;51.416;6.758;2024-03-29T00:54:28;3.47;;;0.90;;
74900;SDS011;63461;51.416;6.758;2024-03-29T00:56:54;5.30;;;0.80;;
74900;SDS011;63461;51.416;6.758;2024-03-29T00:59:20;5.10;;;1.70;;
74900;SDS011;63461;51.416;6.758;2024-03-29T01:01:46;4.47;;;1.00;;
74900;SDS011;63461;51.416;6.758;2024-03-29T01:04:13;6.50;;;1.37;;
74900;SDS011;63461;51.416;6.758;2024-03-29T01:06:39;4.30;;;1.13;;
74900;SDS011;63461;51.416;6.758;2024-03-29T01:09:11;4.00;;;1.47;;
74900;SDS011;63461;51.416;6.758;2024-03-29T01:11:37;3.57;;;1.20;;
74900;SDS011;63461;51.416;6.758;2024-03-29T01:14:04;6.40;;;1.30;;
74900;SDS011;63461;51.416;6.758;2024-03-29T01:16:30;4.60;;;1.47;;
74900;SDS011;63461;51.416;6.758;2024-03-29T01:18:57;7.57;;;1.93;;
74900;SDS011;63461;51.416;6.758;2024-03-29T01:21:23;4.37;;;1.10;;
74900;SDS011;63461;51.416;6.758;2024-03-29T01:23:51;4.63;;;1.00;;
74900;SDS011;63461;51.416;6.758;2024-03-29T01:26:16;2.50;;;1.00;;
74900;SDS011;63461;51.416;6.758;2024-03-29T01:28:43;2.03;;;0.80;;
74900;SDS011;63461;51.416;6.758;2024-03-29T01:31:09;4.87;;;0.90;;
74900;SDS011;63461;51.416;6.758;2024-03-29T01:33:35;2.30;;;0.80;;
74900;SDS011;63461;51.416;6.758;2024-03-29T01:36:06;4.57;;;1.10;;
74900;SDS011;63461;51.416;6.758;2024-03-29T01:38:33;4.77;;;1.00;;
74900;SDS011;63461;51.416;6.758;2024-03-29T01:40:59;4.30;;;1.17;;
74900;SDS011;63461;51.416;6.758;2024-03-29T01:43:25;4.53;;;1.27;;
74900;SDS011;63461;51.416;6.758;2024-03-29T01:45:53;4.67;;;1.40;;
74900;SDS011;63461;51.416;6.758;2024-03-29T01:48:22;3.70;;;1.07;;
74900;SDS011;63461;51.416;6.758;2024-03-29T01:50:49;5.67;;;0.87;;
74900;SDS011;63461;51.416;6.758;2024-03-29T01:53:18;3.37;;;0.90;;
74900;SDS011;63461;51.416;6.758;2024-03-29T01:55:45;2.43;;;1.00;;
74900;SDS011;63461;51.416;6.758;2024-03-29T01:58:11;4.37;;;0.97;;
74900;SDS011;63461;51.416;6.758;2024-03-29T02:00:45;3.57;;;0.93;;
74900;SDS011;63461;51.416;6.758;2024-03-29T02:03:17;3.17;;;1.07;;
74900;SDS011;63461;51.416;6.758;2024-03-29T02:05:43;2.33;;;1.00;;
74900;SDS011;63461;51.416;6.758;2024-03-29T02:08:09;4.87;;;1.00;;
74900;SDS011;63461;51.416;6.758;2024-03-29T02:10:35;6.07;;;1.10;;
74900;SDS011;63461;51.416;6.758;2024-03-29T02:13:02;5.17;;;0.87;;
74900;SDS011;63461;51.416;6.758;2024-03-29T02:15:29;5.00;;;0.90;;
74900;SDS011;63461;51.416;6.758;2024-03-29T02:17:55;3.70;;;1.20;;
74900;SDS011;63461;51.416;6.758;2024-03-29T02:20:21;4.53;;;1.10;;
74900;SDS011;63461;51.416;6.758;2024-03-29T02:22:50;3.50;;;0.87;;
74900;SDS011;63461;51.416;6.758;2024-03-29T02:25:20;5.40;;;1.10;;
74900;SDS011;63461;51.416;6.758;2024-03-29T02:27:46;3.33;;;0.97;;
74900;SDS011;63461;51.416;6.758;2024-03-29T02:30:13;3.50;;;1.07;;
74900;SDS011;63461;51.416;6.758;2024-03-29T02:32:40;2.67;;;0.70;;
74900;SDS011;63461;51.416;6.758;2024-03-29T02:35:06;3.60;;;0.80;;
74900;SDS011;63461;51.416;6.758;2024-03-29T02:37:33;2.60;;;0.80;;
74900;SDS011;63461;51.416;6.758;2024-03-29T02:40:02;2.47;;;0.73;;
74900;SDS011;63461;51.416;6.758;2024-03-29T02:42:29;3.93;;;1.00;;
74900;SDS011;63461;51.416;6.758;2024-03-29T02:44:55;2.20;;;0.83;;
74900;SDS011;63461;51.416;6.758;2024-03-29T02:47:23;1.73;;;0.83;;
74900;SDS011;63461;51.416;6.758;2024-03-29T02:49:49;4.53;;;1.30;;
74900;SDS011;63461;51.416;6.758;2024-03-29T02:52:15;2.77;;;1.30;;
74900;SDS011;63461;51.416;6.758;2024-03-29T02:54:41;2.00;;;1.20;;
74900;SDS011;63461;51.416;6.758;2024-03-29T02:57:07;2.73;;;0.80;;
74900;SDS011;63461;51.416;6.758;2024-03-29T02:59:33;4.07;;;0.97;;
74900;SDS011;63461;51.416;6.758;2024-03-29T03:01:59;2.30;;;0.90;;
74900;SDS011;63461;51.416;6.758;2024-03-29T03:04:25;3.03;;;1.20;;
74900;SDS011;63461;51.416;6.758;2024-03-29T03:06:51;2.30;;;0.80;;
74900;SDS011;63461;51.416;6.758;2024-03-29T03:09:17;3.70;;;1.00;;
74900;SDS011;63461;51.416;6.758;2024-03-29T03:12:01;2.83;;;1.10;;
74900;SDS011;63461;51.416;6.758;2024-03-29T03:14:27;1.83;;;1.00;;
74900;SDS011;63461;51.416;6.758;2024-03-29T03:16:53;2.60;;;0.83;;
74900;SDS011;63461;51.416;6.758;2024-03-29T03:19:19;2.63;;;0.80;;
74900;SDS011;63461;51.416;6.758;2024-03-29T03:21:45;2.50;;;0.80;;
74900;SDS011;63461;51.416;6.758;2024-03-29T03:24:12;3.63;;;0.97;;
74900;SDS011;63461;51.416;6.758;2024-03-29T03:26:38;4.27;;;0.77;;
74900;SDS011;63461;51.416;6.758;2024-03-29T03:29:04;3.00;;;0.70;;
74900;SDS011;63461;51.416;6.758;2024-03-29T03:31:30;4.77;;;0.93;;
74900;SDS011;63461;51.416;6.758;2024-03-29T03:33:56;3.63;;;0.83;;
74900;SDS011;63461;51.416;6.758;2024-03-29T03:36:21;1.97;;;0.70;;
74900;SDS011;63461;51.416;6.758;2024-03-29T03:38:48;2.37;;;1.00;;
74900;SDS011;63461;51.416;6.758;2024-03-29T03:41:14;3.50;;;0.87;;
74900;SDS011;63461;51.416;6.758;2024-03-29T03:43:40;1.37;;;0.70;;
74900;SDS011;63461;51.416;6.758;2024-03-29T03:46:05;3.37;;;0.97;;
74900;SDS011;63461;51.416;6.758;2024-03-29T03:48:31;1.83;;;0.70;;
74900;SDS011;63461;51.416;6.758;2024-03-29T03:50:57;2.27;;;0.90;;
74900;SDS011;63461;51.416;6.758;2024-03-29T03:53:23;2.73;;;1.00;;
74900;SDS011;63461;51.416;6.758;2024-03-29T03:55:49;2.20;;;0.80;;
74900;SDS011;63461;51.416;6.758;2024-03-29T03:58:15;5.27;;;0.90;;
74900;SDS011;63461;51.416;6.758;2024-03-29T04:00:40;4.73;;;0.87;;
74900;SDS011;63461;51.416;6.758;2024-03-29T04:03:06;1.73;;;0.70;;
74900;SDS011;63461;51.416;6.758;2024-03-29T04:05:32;3.27;;;0.80;;
74900;SDS011;63461;51.416;6.758;2024-03-29T04:08:01;2.20;;;1.00;;
74900;SDS011;63461;51.416;6.758;2024-03-29T04:10:27;2.30;;;0.90;;
74900;SDS011;63461;51.416;6.758;2024-03-29T04:12:53;2.60;;;0.80;;
74900;SDS011;63461;51.416;6.758;2024-03-29T04:15:19;3.67;;;1.00;;
74900;SDS011;63461;51.416;6.758;2024-03-29T04:17:45;3.23;;;1.00;;
74900;SDS011;63461;51.416;6.758;2024-03-29T04:20:11;3.47;;;0.70;;
74900;SDS011;63461;51.416;6.758;2024-03-29T04:22:36;3.87;;;0.80;;
74900;SDS011;63461;51.416;6.758;2024-03-29T04:25:02;3.47;;;0.87;;
74900;SDS011;63461;51.416;6.758;2024-03-29T04:27:28;3.37;;;0.83;;
74900;SDS011;63461;51.416;6.758;2024-03-29T04:29:54;2.17;;;0.70;;
74900;SDS011;63461;51.416;6.758;2024-03-29T04:32:20;2.80;;;1.00;;
74900;SDS011;63461;51.416;6.758;2024-03-29T04:34:47;2.27;;;0.70;;
74900;SDS011;63461;51.416;6.758;2024-03-29T04:37:14;1.73;;;0.70;;
74900;SDS011;63461;51.416;6.758;2024-03-29T04:39:41;3.13;;;0.80;;
74900;SDS011;63461;51.416;6.758;2024-03-29T04:42:08;3.77;;;1.07;;
74900;SDS011;63461;51.416;6.758;2024-03-29T04:44:34;5.10;;;0.90;;
74900;SDS011;63461;51.416;6.758;2024-03-29T04:47:00;1.80;;;0.70;;
74900;SDS011;63461;51.416;6.758;2024-03-29T04:49:26;4.83;;;1.07;;
74900;SDS011;63461;51.416;6.758;2024-03-29T04:52:04;4.13;;;0.87;;
74900;SDS011;63461;51.416;6.758;2024-03-29T04:54:31;2.93;;;0.83;;
74900;SDS011;63461;51.416;6.758;2024-03-29T04:56:58;3.70;;;0.80;;
74900;SDS011;63461;51.416;6.758;2024-03-29T04:59:28;3.73;;;0.83;;
74900;SDS011;63461;51.416;6.758;2024-03-29T05:01:55;4.17;;;0.80;;
74900;SDS011;63461;51.416;6.758;2024-03-29T05:04:22;4.10;;;0.87;;
74900;SDS011;63461;51.416;6.758;2024-03-29T05:06:54;3.40;;;0.80;;
74900;SDS011;63461;51.416;6.758;2024-03-29T05:09:21;2.83;;;0.90;;
74900;SDS011;63461;51.416;6.758;2024-03-29T05:11:48;2.93;;;0.80;;
74900;SDS011;63461;51.416;6.758;2024-03-29T05:14:14;3.47;;;1.03;;
74900;SDS011;63461;51.416;6.758;2024-03-29T05:16:43;5.13;;;0.90;;
74900;SDS011;63461;51.416;6.758;2024-03-29T05:19:13;2.00;;;0.73;;
74900;SDS011;63461;51.416;6.758;2024-03-29T05:21:39;3.43;;;1.23;;
74900;SDS011;63461;51.416;6.758;2024-03-29T05:24:06;11.80;;;1.37;;
74900;SDS011;63461;51.416;6.758;2024-03-29T05:26:33;1.43;;;0.90;;
74900;SDS011;63461;51.416;6.758;2024-03-29T05:28:59;6.27;;;1.07;;
74900;SDS011;63461;51.416;6.758;2024-03-29T05:31:25;3.27;;;1.00;;
74900;SDS011;63461;51.416;6.758;2024-03-29T05:33:52;4.50;;;0.90;;
74900;SDS011;63461;51.416;6.758;2024-03-29T05:36:18;6.37;;;1.20;;
74900;SDS011;63461;51.416;6.758;2024-03-29T05:38:44;4.10;;;1.27;;
74900;SDS011;63461;51.416;6.758;2024-03-29T05:41:11;3.63;;;1.00;;
74900;SDS011;63461;51.416;6.758;2024-03-29T05:43:38;2.40;;;1.13;;
74900;SDS011;63461;51.416;6.758;2024-03-29T05:46:05;6.13;;;0.97;;
74900;SDS011;63461;51.416;6.758;2024-03-29T05:48:31;4.73;;;0.87;;
74900;SDS011;63461;51.416;6.758;2024-03-29T05:50:57;2.40;;;0.90;;
74900;SDS011;63461;51.416;6.758;2024-03-29T05:53:22;5.70;;;1.20;;
74900;SDS011;63461;51.416;6.758;2024-03-29T05:55:49;5.83;;;1.40;;
74900;SDS011;63461;51.416;6.758;2024-03-29T05:58:15;4.87;;;1.03;;
74900;SDS011;63461;51.416;6.758;2024-03-29T06:00:43;4.47;;;1.10;;
74900;SDS011;63461;51.416;6.758;2024-03-29T06:03:09;4.33;;;1.30;;
74900;SDS011;63461;51.416;6.758;2024-03-29T06:05:35;3.20;;;1.03;;
74900;SDS011;63461;51.416;6.758;2024-03-29T06:08:01;3.53;;;1.00;;
74900;SDS011;63461;51.416;6.758;2024-03-29T06:10:27;3.93;;;1.20;;
74900;SDS011;63461;51.416;6.758;2024-03-29T06:12:53;4.00;;;1.00;;
74900;SDS011;63461;51.416;6.758;2024-03-29T06:15:19;4.17;;;0.97;;
74900;SDS011;63461;51.416;6.758;2024-03-29T06:18:03;4.70;;;1.27;;
74900;SDS011;63461;51.416;6.758;2024-03-29T06:20:29;4.00;;;1.10;;
74900;SDS011;63461;51.416;6.758;2024-03-29T06:22:55;3.60;;;1.00;;
74900;SDS011;63461;51.416;6.758;2024-03-29T06:25:21;2.33;;;0.90;;
74900;SDS011;63461;51.416;6.758;2024-03-29T06:27:47;5.33;;;1.00;;
74900;SDS011;63461;51.416;6.758;2024-03-29T06:30:13;4.60;;;1.10;;
74900;SDS011;63461;51.416;6.758;2024-03-29T06:32:41;3.40;;;1.03;;
74900;SDS011;63461;51.416;6.758;2024-03-29T06:35:06;3.57;;;1.03;;
74900;SDS011;63461;51.416;6.758;2024-03-29T06:37:32;3.97;;;1.00;;
74900;SDS011;63461;51.416;6.758;2024-03-29T06:39:58;3.30;;;0.80;;
74900;SDS011;63461;51.416;6.758;2024-03-29T06:42:24;3.80;;;0.90;;
74900;SDS011;63461;51.416;6.758;2024-03-29T06:44:50;2.63;;;1.03;;
74900;SDS011;63461;51.416;6.758;2024-03-29T06:47:17;4.93;;;1.00;;
74900;SDS011;63461;51.416;6.758;2024-03-29T06:49:43;5.47;;;1.27;;
74900;SDS011;63461;51.416;6.758;2024-03-29T06:52:09;6.33;;;1.20;;
74900;SDS011;63461;51.416;6.758;2024-03-29T06:54:35;5.37;;;1.30;;
74900;SDS011;63461;51.416;6.758;2024-03-29T06:57:01;7.13;;;1.40;;
74900;SDS011;63461;51.416;6.758;2024-03-29T06:59:28;3.37;;;1.30;;
74900;SDS011;63461;51.416;6.758;2024-03-29T07:01:54;3.33;;;1.37;;
74900;SDS011;63461;51.416;6.758;2024-03-29T07:04:24;4.67;;;1.20;;
74900;SDS011;63461;51.416;6.758;2024-03-29T07:06:51;7.53;;;1.20;;
74900;SDS011;63461;51.416;6.758;2024-03-29T07:09:19;2.67;;;1.27;;
74900;SDS011;63461;51.416;6.758;2024-03-29T07:11:46;3.13;;;1.10;;
74900;SDS011;63461;51.416;6.758;2024-03-29T07:14:14;2.53;;;1.10;;
74900;SDS011;63461;51.416;6.758;2024-03-29T07:16:41;3.77;;;1.00;;
74900;SDS011;63461;51.416;6.758;2024-03-29T07:19:07;3.77;;;1.17;;
74900;SDS011;63461;51.416;6.758;2024-03-29T07:21:33;2.77;;;1.10;;
74900;SDS011;63461;51.416;6.758;2024-03-29T07:23:59;5.07;;;1.30;;
74900;SDS011;63461;51.416;6.758;2024-03-29T07:26:24;3.13;;;0.97;;
74900;SDS011;63461;51.416;6.758;2024-03-29T07:28:50;3.90;;;1.00;;
74900;SDS011;63461;51.416;6.758;2024-03-29T07:31:16;2.67;;;1.40;;
74900;SDS011;63461;51.416;6.758;2024-03-29T07:33:42;3.67;;;1.10;;
74900;SDS011;63461;51.416;6.758;2024-03-29T07:36:08;4.13;;;1.40;;
74900;SDS011;63461;51.416;6.758;2024-03-29T07:38:36;2.90;;;1.20;;
74900;SDS011;63461;51.416;6.758;2024-03-29T07:41:03;3.27;;;1.30;;
74900;SDS011;63461;51.416;6.758;2024-03-29T07:43:41;5.20;;;1.40;;
74900;SDS011;63461;51.416;6.758;2024-03-29T07:46:22;5.07;;;1.20;;
74900;SDS011;63461;51.416;6.758;2024-03-29T07:48:49;5.97;;;1.20;;
74900;SDS011;63461;51.416;6.758;2024-03-29T07:51:15;2.03;;;1.10;;
74900;SDS011;63461;51.416;6.758;2024-03-29T07:53:40;7.33;;;1.80;;
74900;SDS011;63461;51.416;6.758;2024-03-29T07:56:06;2.70;;;1.40;;
74900;SDS011;63461;51.416;6.758;2024-03-29T07:58:32;4.73;;;1.50;;
74900;SDS011;63461;51.416;6.758;2024-03-29T08:00:58;4.33;;;1.30;;
74900;SDS011;63461;51.416;6.758;2024-03-29T08:03:23;4.20;;;1.50;;
74900;SDS011;63461;51.416;6.758;2024-03-29T08:05:59;5.50;;;1.30;;
74900;SDS011;63461;51.416;6.758;2024-03-29T08:08:31;3.63;;;1.53;;
74900;SDS011;63461;51.416;6.758;2024-03-29T08:10:58;4.13;;;1.27;;
74900;SDS011;63461;51.416;6.758;2024-03-29T08:13:25;4.00;;;1.27;;
74900;SDS011;63461;51.416;6.758;2024-03-29T08:16:00;5.97;;;1.60;;
74900;SDS011;63461;51.416;6.758;2024-03-29T08:18:27;4.70;;;2.00;;
74900;SDS011;63461;51.416;6.758;2024-03-29T08:20:54;7.93;;;1.37;;
74900;SDS011;63461;51.416;6.758;2024-03-29T08:23:24;5.77;;;1.47;;
74900;SDS011;63461;51.416;6.758;2024-03-29T08:25:53;4.27;;;1.50;;
74900;SDS011;63461;51.416;6.758;2024-03-29T08:28:21;3.50;;;1.50;;
74900;SDS011;63461;51.416;6.758;2024-03-29T08:31:09;3.87;;;1.53;;
74900;SDS011;63461;51.416;6.758;2024-03-29T08:33:34;4.00;;;1.53;;
74900;SDS011;63461;51.416;6.758;2024-03-29T08:36:07;2.97;;;1.30;;
74900;SDS011;63461;51.416;6.758;2024-03-29T08:38:33;3.63;;;1.60;;
74900;SDS011;63461;51.416;6.758;2024-03-29T08:41:00;5.83;;;1.70;;
74900;SDS011;63461;51.416;6.758;2024-03-29T08:43:26;7.30;;;2.17;;
74900;SDS011;63461;51.416;6.758;2024-03-29T08:45:52;6.50;;;3.17;;
74900;SDS011;63461;51.416;6.758;2024-03-29T08:48:18;7.80;;;3.10;;
74900;SDS011;63461;51.416;6.758;2024-03-29T08:50:44;4.97;;;2.27;;
74900;SDS011;63461;51.416;6.758;2024-03-29T08:53:12;5.20;;;2.27;;
74900;SDS011;63461;51.416;6.758;2024-03-29T08:55:38;5.97;;;1.57;;
74900;SDS011;63461;51.416;6.758;2024-03-29T08:58:05;4.60;;;1.87;;
74900;SDS011;63461;51.416;6.758;2024-03-29T09:00:31;5.13;;;1.93;;
74900;SDS011;63461;51.416;6.758;2024-03-29T09:02:57;5.80;;;1.77;;
74900;SDS011;63461;51.416;6.758;2024-03-29T09:05:23;4.03;;;1.70;;
74900;SDS011;63461;51.416;6.758;2024-03-29T09:07:50;3.87;;;1.50;;
74900;SDS011;63461;51.416;6.758;2024-03-29T09:10:16;3.23;;;1.70;;
74900;SDS011;63461;51.416;6.758;2024-03-29T09:12:42;6.07;;;1.73;;
74900;SDS011;63461;51.416;6.758;2024-03-29T09:15:08;4.07;;;1.33;;
74900;SDS011;63461;51.416;6.758;2024-03-29T09:17:41;4.30;;;1.90;;
74900;SDS011;63461;51.416;6.758;2024-03-29T09:20:08;4.17;;;1.60;;
74900;SDS011;63461;51.416;6.758;2024-03-29T09:22:34;4.13;;;1.83;;
74900;SDS011;63461;51.416;6.758;2024-03-29T09:25:00;5.43;;;2.10;;
74900;SDS011;63461;51.416;6.758;2024-03-29T09:27:26;5.47;;;1.90;;
74900;SDS011;63461;51.416;6.758;2024-03-29T09:29:52;4.20;;;1.87;;
74900;SDS011;63461;51.416;6.758;2024-03-29T09:32:19;4.43;;;1.80;;
74900;SDS011;63461;51.416;6.758;2024-03-29T09:34:46;5.67;;;1.93;;
74900;SDS011;63461;51.416;6.758;2024-03-29T09:37:12;4.60;;;1.90;;
74900;SDS011;63461;51.416;6.758;2024-03-29T09:39:38;3.13;;;1.83;;
74900;SDS011;63461;51.416;6.758;2024-03-29T09:42:04;4.13;;;2.17;;
74900;SDS011;63461;51.416;6.758;2024-03-29T09:44:32;8.90;;;2.20;;
74900;SDS011;63461;51.416;6.758;2024-03-29T09:47:02;5.97;;;3.47;;
74900;SDS011;63461;51.416;6.758;2024-03-29T09:49:30;7.77;;;3.77;;
74900;SDS011;63461;51.416;6.758;2024-03-29T09:51:57;14.10;;;8.23;;
74900;SDS011;63461;51.416;6.758;2024-03-29T09:54:24;11.13;;;6.07;;
74900;SDS011;63461;51.416;6.758;2024-03-29T09:56:53;16.07;;;6.03;;
74900;SDS011;63461;51.416;6.758;2024-03-29T09:59:21;9.00;;;3.60;;
74900;SDS011;63461;51.416;6.758;2024-03-29T10:01:47;4.43;;;2.60;;
74900;SDS011;63461;51.416;6.758;2024-03-29T10:04:15;6.27;;;3.00;;
74900;SDS011;63461;51.416;6.758;2024-03-29T10:06:42;7.30;;;2.30;;
74900;SDS011;63461;51.416;6.758;2024-03-29T10:09:10;7.50;;;2.60;;
74900;SDS011;63461;51.416;6.758;2024-03-29T10:11:37;5.23;;;2.27;;
74900;SDS011;63461;51.416;6.758;2024-03-29T10:14:04;3.87;;;1.90;;
74900;SDS011;63461;51.416;6.758;2024-03-29T10:16:30;6.33;;;2.27;;
74900;SDS011;63461;51.416;6.758;2024-03-29T10:18:59;7.70;;;2.00;;
74900;SDS011;63461;51.416;6.758;2024-03-29T10:21:25;3.37;;;2.00;;
74900;SDS011;63461;51.416;6.758;2024-03-29T10:23:54;2.97;;;1.70;;
74900;SDS011;63461;51.416;6.758;2024-03-29T10:26:20;4.57;;;1.83;;
74900;SDS011;63461;51.416;6.758;2024-03-29T10:28:47;4.20;;;2.10;;
74900;SDS011;63461;51.416;6.758;2024-03-29T10:31:14;7.97;;;2.40;;
74900;SDS011;63461;51.416;6.758;2024-03-29T10:33:42;4.57;;;1.90;;
74900;SDS011;63461;51.416;6.758;2024-03-29T10:36:09;5.23;;;2.00;;
74900;SDS011;63461;51.416;6.758;2024-03-29T10:38:37;7.27;;;2.40;;
74900;SDS011;63461;51.416;6.758;2024-03-29T10:41:04;5.40;;;1.90;;
74900;SDS011;63461;51.416;6.758;2024-03-29T10:43:32;5.80;;;1.90;;
74900;SDS011;63461;51.416;6.758;2024-03-29T10:45:59;3.23;;;1.60;;
74900;SDS011;63461;51.416;6.758;2024-03-29T10:48:26;7.17;;;2.00;;
74900;SDS011;63461;51.416;6.758;2024-03-29T10:50:54;6.30;;;1.93;;
74900;SDS011;63461;51.416;6.758;2024-03-29T10:53:23;4.13;;;1.90;;
74900;SDS011;63461;51.416;6.758;2024-03-29T10:55:58;5.13;;;2.00;;
74900;SDS011;63461;51.416;6.758;2024-03-29T10:58:27;5.23;;;1.90;;
74900;SDS011;63461;51.416;6.758;2024-03-29T11:00:59;7.60;;;2.53;;
74900;SDS011;63461;51.416;6.758;2024-03-29T11:03:43;7.37;;;2.30;;
74900;SDS011;63461;51.416;6.758;2024-03-29T11:06:14;4.47;;;1.67;;
74900;SDS011;63461;51.416;6.758;2024-03-29T11:08:40;5.67;;;2.03;;
74900;SDS011;63461;51.416;6.758;2024-03-29T11:11:12;12.33;;;5.00;;
74900;SDS011;63461;51.416;6.758;2024-03-29T11:13:40;6.40;;;1.73;;
74900;SDS011;63461;51.416;6.758;2024-03-29T11:16:18;3.10;;;1.58;;
74900;SDS011;63461;51.416;6.758;2024-03-29T11:18:46;4.97;;;1.43;;
74900;SDS011;63461;51.416;6.758;2024-03-29T11:21:14;5.68;;;1.38;;
74900;SDS011;63461;51.416;6.758;2024-03-29T11:23:50;6.57;;;1.67;;
74900;SDS011;63461;51.416;6.758;2024-03-29T11:26:17;2.42;;;1.50;;
74900;SDS011;63461;51.416;6.758;2024-03-29T11:28:50;1.38;;;1.00;;
74900;SDS011;63461;51.416;6.758;2024-03-29T11:31:17;2.78;;;0.93;;
74900;SDS011;63461;51.416;6.758;2024-03-29T11:36:20;2.60;;;1.10;;
74900;SDS011;63461;51.416;6.758;2024-03-29T11:38:51;2.92;;;1.30;;
74900;SDS011;63461;51.416;6.758;2024-03-29T11:41:18;3.00;;;1.13;;
74900;SDS011;63461;51.416;6.758;2024-03-29T11:43:49;2.35;;;0.90;;
74900;SDS011;63461;51.416;6.758;2024-03-29T11:46:16;2.92;;;0.93;;
74900;SDS011;63461;51.416;6.758;2024-03-29T11:48:43;1.98;;;0.90;;
74900;SDS011;63461;51.416;6.758;2024-03-29T11:51:15;3.03;;;0.80;;
74900;SDS011;63461;51.416;6.758;2024-03-29T11:53:44;2.03;;;0.93;;
74900;SDS011;63461;51.416;6.758;2024-03-29T11:56:10;2.28;;;1.00;;
74900;SDS011;63461;51.416;6.758;2024-03-29T11:58:37;2.55;;;1.08;;
74900;SDS011;63461;51.416;6.758;2024-03-29T12:01:04;2.22;;;0.90;;
74900;SDS011;63461;51.416;6.758;2024-03-29T12:03:30;5.60;;;1.17;;
74900;SDS011;63461;51.416;6.758;2024-03-29T12:05:58;3.58;;;1.00;;
74900;SDS011;63461;51.416;6.758;2024-03-29T12:08:30;1.90;;;0.93;;
74900;SDS011;63461;51.416;6.758;2024-03-29T12:11:02;5.72;;;1.13;;
74900;SDS011;63461;51.416;6.758;2024-03-29T12:13:28;3.70;;;1.10;;
74900;SDS011;63461;51.416;6.758;2024-03-29T12:15:55;6.55;;;2.05;;
74900;SDS011;63461;51.416;6.758;2024-03-29T12:18:22;3.70;;;1.65;;
74900;SDS011;63461;51.416;6.758;2024-03-29T12:20:49;2.65;;;1.27;;
74900;SDS011;63461;51.416;6.758;2024-03-29T12:23:16;2.33;;;0.90;;
74900;SDS011;63461;51.416;6.758;2024-03-29T12:25:43;2.05;;;0.90;;
74900;SDS011;63461;51.416;6.758;2024-03-29T12:28:10;6.53;;;1.00;;
74900;SDS011;63461;51.416;6.758;2024-03-29T12:30:36;3.40;;;1.00;;
74900;SDS011;63461;51.416;6.758;2024-03-29T12:33:07;1.25;;;0.75;;
74900;SDS011;63461;51.416;6.758;2024-03-29T12:35:36;0.50;;;0.50;;
74900;SDS011;63461;51.416;6.758;2024-03-29T12:38:03;2.70;;;1.23;;
74900;SDS011;63461;51.416;6.758;2024-03-29T12:40:32;3.25;;;1.35;;
74900;SDS011;63461;51.416;6.758;2024-03-29T12:43:02;2.42;;;1.30;;
74900;SDS011;63461;51.416;6.758;2024-03-29T12:45:36;3.95;;;0.98;;
74900;SDS011;63461;51.416;6.758;2024-03-29T12:48:11;2.47;;;1.00;;
74900;SDS011;63461;51.416;6.758;2024-03-29T12:50:42;1.30;;;0.82;;
74900;SDS011;63461;51.416;6.758;2024-03-29T12:53:09;1.27;;;0.70;;
74900;SDS011;63461;51.416;6.758;2024-03-29T12:55:37;2.30;;;1.05;;
74900;SDS011;63461;51.416;6.758;2024-03-29T12:58:10;3.50;;;1.42;;
74900;SDS011;63461;51.416;6.758;2024-03-29T13:00:39;5.97;;;2.47;;
74900;SDS011;63461;51.416;6.758;2024-03-29T13:03:06;3.85;;;2.10;;
74900;SDS011;63461;51.416;6.758;2024-03-29T13:05:33;8.70;;;3.33;;
74900;SDS011;63461;51.416;6.758;2024-03-29T13:08:03;7.57;;;3.63;;
74900;SDS011;63461;51.416;6.758;2024-03-29T13:10:34;6.72;;;3.00;;
74900;SDS011;63461;51.416;6.758;2024-03-29T13:13:00;9.13;;;3.20;;
74900;SDS011;63461;51.416;6.758;2024-03-29T13:15:26;3.78;;;2.30;;
74900;SDS011;63461;51.416;6.758;2024-03-29T13:17:56;6.03;;;1.98;;
74900;SDS011;63461;51.416;6.758;2024-03-29T13:20:22;2.33;;;1.20;;
74900;SDS011;63461;51.416;6.758;2024-03-29T13:22:49;2.03;;;0.70;;
74900;SDS011;63461;51.416;6.758;2024-03-29T13:25:19;1.77;;;0.90;;
74900;SDS011;63461;51.416;6.758;2024-03-29T13:27:46;1.50;;;0.93;;
74900;SDS011;63461;51.416;6.758;2024-03-29T13:30:26;2.17;;;1.00;;
74900;SDS011;63461;51.416;6.758;2024-03-29T13:32:53;2.90;;;1.20;;
74900;SDS011;63461;51.416;6.758;2024-03-29T13:35:19;3.08;;;0.90;;
74900;SDS011;63461;51.416;6.758;2024-03-29T13:37:51;1.52;;;0.70;;
74900;SDS011;63461;51.416;6.758;2024-03-29T13:40:21;1.75;;;0.80;;
74900;SDS011;63461;51.416;6.758;2024-03-29T13:42:49;2.20;;;0.70;;
74900;SDS011;63461;51.416;6.758;2024-03-29T13:45:15;2.38;;;0.50;;
74900;SDS011;63461;51.416;6.758;2024-03-29T13:47:42;1.63;;;0.70;;
74900;SDS011;63461;51.416;6.758;2024-03-29T13:50:09;4.95;;;1.30;;
74900;SDS011;63461;51.416;6.758;2024-03-29T13:52:36;1.17;;;0.55;;
74900;SDS011;63461;51.416;6.758;2024-03-29T13:55:03;2.97;;;0.68;;
74900;SDS011;63461;51.416;6.758;2024-03-29T13:57:30;1.60;;;0.80;;
74900;SDS011;63461;51.416;6.758;2024-03-29T13:59:56;2.58;;;0.80;;
74900;SDS011;63461;51.416;6.758;2024-03-29T14:02:24;2.78;;;0.80;;
74900;SDS011;63461;51.416;6.758;2024-03-29T14:04:51;4.75;;;1.05;;
74900;SDS011;63461;51.416;6.758;2024-03-29T14:07:17;1.92;;;1.02;;
74900;SDS011;63461;51.416;6.758;2024-03-29T14:09:43;0.88;;;0.55;;
74900;SDS011;63461;51.416;6.758;2024-03-29T14:12:10;3.17;;;0.70;;
74900;SDS011;63461;51.416;6.758;2024-03-29T14:14:38;0.93;;;0.60;;
74900;SDS011;63461;51.416;6.758;2024-03-29T14:17:04;1.38;;;0.60;;
74900;SDS011;63461;51.416;6.758;2024-03-29T14:19:35;1.02;;;0.50;;
74900;SDS011;63461;51.416;6.758;2024-03-29T14:22:04;1.13;;;0.70;;
74900;SDS011;63461;51.416;6.758;2024-03-29T14:24:31;1.55;;;0.70;;
74900;SDS011;63461;51.416;6.758;2024-03-29T14:27:01;1.45;;;0.60;;
74900;SDS011;63461;51.416;6.758;2024-03-29T14:29:28;1.45;;;0.65;;
74900;SDS011;63461;51.416;6.758;2024-03-29T14:31:54;1.63;;;0.55;;
74900;SDS011;63461;51.416;6.758;2024-03-29T14:34:20;1.45;;;0.90;;
74900;SDS011;63461;51.416;6.758;2024-03-29T14:36:47;3.97;;;0.70;;
74900;SDS011;63461;51.416;6.758;2024-03-29T14:39:13;1.23;;;0.70;;
74900;SDS011;63461;51.416;6.758;2024-03-29T14:41:39;3.88;;;0.80;;
74900;SDS011;63461;51.416;6.758;2024-03-29T14:44:06;2.97;;;0.90;;
74900;SDS011;63461;51.416;6.758;2024-03-29T14:46:32;1.63;;;0.50;;
74900;SDS011;63461;51.416;6.758;2024-03-29T14:49:02;1.73;;;0.60;;
74900;SDS011;63461;51.416;6.758;2024-03-29T14:51:33;2.17;;;0.80;;